sensor_id;sensor_type;location;lat;lon;timestamp;temperature;humidity
34646;DHT22;20857;47.808;12.482;2023-02-26T00:02:13;-0.10;99.90
34646;DHT22;20857;47.808;12.482;2023-02-26T00:04:39;-0.30;99.90
34646;DHT22;20857;47.808;12.482;2023-02-26T00:07:04;-0.40;99.90
34646;DHT22;20857;47.808;12.482;2023-02-26T00:09:30;-0.20;99.90
34646;DHT22;20857;47.808;12.482;2023-02-26T00:11:56;-0.20;99.90
34646;DHT22;20857;47.808;12.482;2023-02-26T00:14:21;-0.30;99.90
34646;DHT22;20857;47.808;12.482;2023-02-26T00:16:49;-0.30;99.90
34646;DHT22;20857;47.808;12.482;2023-02-26T00:19:15;-0.40;99.90
34646;DHT22;20857;47.808;12.482;2023-02-26T00:21:41;-0.60;99.90
34646;DHT22;20857;47.808;12.482;2023-02-26T00:24:06;-1.00;99.90
34646;DHT22;20857;47.808;12.482;2023-02-26T00:26:32;-1.00;99.90
34646;DHT22;20857;47.808;12.482;2023-02-26T00:28:58;-1.20;99.90
34646;DHT22;20857;47.808;12.482;2023-02-26T00:31:23;-1.20;99.90
34646;DHT22;20857;47.808;12.482;2023-02-26T00:33:49;-1.30;99.90
34646;DHT22;20857;47.808;12.482;2023-02-26T00:36:28;-1.20;99.90
34646;DHT22;20857;47.808;12.482;2023-02-26T00:39:05;-1.40;99.90
34646;DHT22;20857;47.808;12.482;2023-02-26T00:41:32;-1.40;99.90
34646;DHT22;20857;47.808;12.482;2023-02-26T00:43:57;-1.50;99.90
34646;DHT22;20857;47.808;12.482;2023-02-26T00:46:34;-1.40;99.90
34646;DHT22;20857;47.808;12.482;2023-02-26T00:51:52;-1.30;99.90
34646;DHT22;20857;47.808;12.482;2023-02-26T00:54:24;-1.40;99.90
34646;DHT22;20857;47.808;12.482;2023-02-26T00:56:51;-1.30;99.90
34646;DHT22;20857;47.808;12.482;2023-02-26T00:59:17;-1.30;99.90
34646;DHT22;20857;47.808;12.482;2023-02-26T01:01:42;-1.40;99.90
34646;DHT22;20857;47.808;12.482;2023-02-26T01:04:08;-1.40;99.90
34646;DHT22;20857;47.808;12.482;2023-02-26T01:06:34;-1.40;99.90
34646;DHT22;20857;47.808;12.482;2023-02-26T01:11:30;-1.30;99.90
34646;DHT22;20857;47.808;12.482;2023-02-26T01:13:56;-1.20;99.90
34646;DHT22;20857;47.808;12.482;2023-02-26T01:16:24;-1.10;99.90
34646;DHT22;20857;47.808;12.482;2023-02-26T01:21:39;-1.10;99.90
34646;DHT22;20857;47.808;12.482;2023-02-26T01:24:07;-1.10;99.90
34646;DHT22;20857;47.808;12.482;2023-02-26T01:26:34;-1.10;99.90
34646;DHT22;20857;47.808;12.482;2023-02-26T01:29:00;-1.20;99.90
34646;DHT22;20857;47.808;12.482;2023-02-26T01:33:54;-1.20;99.90
34646;DHT22;20857;47.808;12.482;2023-02-26T01:36:23;-1.10;99.90
34646;DHT22;20857;47.808;12.482;2023-02-26T01:43:50;-1.10;99.90
34646;DHT22;20857;47.808;12.482;2023-02-26T01:48:53;-1.20;99.90
34646;DHT22;20857;47.808;12.482;2023-02-26T01:51:39;-1.20;99.90
34646;DHT22;20857;47.808;12.482;2023-02-26T01:54:04;-1.30;99.90
34646;DHT22;20857;47.808;12.482;2023-02-26T01:56:30;-1.40;99.90
34646;DHT22;20857;47.808;12.482;2023-02-26T01:58:55;-1.40;99.90
34646;DHT22;20857;47.808;12.482;2023-02-26T02:01:21;-1.40;99.90
34646;DHT22;20857;47.808;12.482;2023-02-26T02:03:46;-1.50;99.90
34646;DHT22;20857;47.808;12.482;2023-02-26T02:06:16;-1.40;99.90
34646;DHT22;20857;47.808;12.482;2023-02-26T02:08:42;-1.40;99.90
34646;DHT22;20857;47.808;12.482;2023-02-26T02:11:09;-1.40;99.90
34646;DHT22;20857;47.808;12.482;2023-02-26T02:23:46;-1.40;99.90
34646;DHT22;20857;47.808;12.482;2023-02-26T02:31:52;-1.50;99.90
34646;DHT22;20857;47.808;12.482;2023-02-26T02:34:18;-1.40;99.90
34646;DHT22;20857;47.808;12.482;2023-02-26T02:39:18;-1.40;99.90
34646;DHT22;20857;47.808;12.482;2023-02-26T02:41:46;-1.40;99.90
34646;DHT22;20857;47.808;12.482;2023-02-26T02:44:13;-1.30;99.90
34646;DHT22;20857;47.808;12.482;2023-02-26T02:46:40;-1.30;99.90
34646;DHT22;20857;47.808;12.482;2023-02-26T02:49:20;-1.40;99.90
34646;DHT22;20857;47.808;12.482;2023-02-26T02:51:52;-1.40;99.90
34646;DHT22;20857;47.808;12.482;2023-02-26T02:54:23;-1.40;99.90
34646;DHT22;20857;47.808;12.482;2023-02-26T02:56:57;-1.40;99.90
34646;DHT22;20857;47.808;12.482;2023-02-26T02:59:32;-1.50;99.90
34646;DHT22;20857;47.808;12.482;2023-02-26T03:02:05;-1.50;99.90
34646;DHT22;20857;47.808;12.482;2023-02-26T03:04:32;-1.40;99.90
34646;DHT22;20857;47.808;12.482;2023-02-26T03:06:58;-1.50;99.90
34646;DHT22;20857;47.808;12.482;2023-02-26T03:09:23;-1.50;99.90
34646;DHT22;20857;47.808;12.482;2023-02-26T03:11:49;-1.50;99.90
34646;DHT22;20857;47.808;12.482;2023-02-26T03:14:14;-1.50;99.90
34646;DHT22;20857;47.808;12.482;2023-02-26T03:22:01;-1.40;99.90
34646;DHT22;20857;47.808;12.482;2023-02-26T03:24:31;-1.50;99.90
34646;DHT22;20857;47.808;12.482;2023-02-26T03:32:06;-1.50;99.90
34646;DHT22;20857;47.808;12.482;2023-02-26T03:34:38;-1.50;99.90
34646;DHT22;20857;47.808;12.482;2023-02-26T03:37:14;-1.50;99.90
34646;DHT22;20857;47.808;12.482;2023-02-26T03:39:45;-1.50;99.90
34646;DHT22;20857;47.808;12.482;2023-02-26T03:42:19;-1.60;99.90
34646;DHT22;20857;47.808;12.482;2023-02-26T03:44:53;-1.50;99.90
34646;DHT22;20857;47.808;12.482;2023-02-26T03:47:20;-1.50;99.90
34646;DHT22;20857;47.808;12.482;2023-02-26T03:49:53;-1.50;99.90
34646;DHT22;20857;47.808;12.482;2023-02-26T03:52:20;-1.60;99.90
34646;DHT22;20857;47.808;12.482;2023-02-26T03:54:51;-1.60;99.90
34646;DHT22;20857;47.808;12.482;2023-02-26T03:57:18;-1.70;99.90
34646;DHT22;20857;47.808;12.482;2023-02-26T03:59:44;-1.60;99.90
34646;DHT22;20857;47.808;12.482;2023-02-26T04:02:13;-1.60;99.90
34646;DHT22;20857;47.808;12.482;2023-02-26T04:04:48;-1.70;99.90
34646;DHT22;20857;47.808;12.482;2023-02-26T04:07:15;-1.70;99.90
34646;DHT22;20857;47.808;12.482;2023-02-26T04:09:42;-1.80;99.90
34646;DHT22;20857;47.808;12.482;2023-02-26T04:12:07;-1.90;99.90
34646;DHT22;20857;47.808;12.482;2023-02-26T04:14:33;-1.90;99.90
34646;DHT22;20857;47.808;12.482;2023-02-26T04:16:58;-1.90;99.90
34646;DHT22;20857;47.808;12.482;2023-02-26T04:19:24;-1.90;99.90
34646;DHT22;20857;47.808;12.482;2023-02-26T04:21:49;-1.90;99.90
34646;DHT22;20857;47.808;12.482;2023-02-26T04:24:15;-1.90;99.90
34646;DHT22;20857;47.808;12.482;2023-02-26T04:26:40;-2.00;99.90
34646;DHT22;20857;47.808;12.482;2023-02-26T04:29:06;-1.90;99.90
34646;DHT22;20857;47.808;12.482;2023-02-26T04:31:31;-1.90;99.90
34646;DHT22;20857;47.808;12.482;2023-02-26T04:33:57;-1.90;99.90
34646;DHT22;20857;47.808;12.482;2023-02-26T04:36:22;-1.90;99.90
34646;DHT22;20857;47.808;12.482;2023-02-26T04:38:48;-1.90;99.90
34646;DHT22;20857;47.808;12.482;2023-02-26T04:41:13;-1.80;99.90
34646;DHT22;20857;47.808;12.482;2023-02-26T04:43:39;-1.80;99.90
34646;DHT22;20857;47.808;12.482;2023-02-26T04:46:04;-1.90;99.90
34646;DHT22;20857;47.808;12.482;2023-02-26T04:48:30;-1.80;99.90
34646;DHT22;20857;47.808;12.482;2023-02-26T04:50:55;-1.80;99.90
34646;DHT22;20857;47.808;12.482;2023-02-26T04:53:21;-1.90;99.90
34646;DHT22;20857;47.808;12.482;2023-02-26T04:55:47;-1.80;99.90
34646;DHT22;20857;47.808;12.482;2023-02-26T04:58:12;-1.80;99.90
34646;DHT22;20857;47.808;12.482;2023-02-26T05:00:38;-1.70;99.90
34646;DHT22;20857;47.808;12.482;2023-02-26T05:03:04;-1.80;99.90
34646;DHT22;20857;47.808;12.482;2023-02-26T05:05:30;-1.80;99.90
34646;DHT22;20857;47.808;12.482;2023-02-26T05:07:55;-1.80;99.90
34646;DHT22;20857;47.808;12.482;2023-02-26T05:10:21;-1.70;99.90
34646;DHT22;20857;47.808;12.482;2023-02-26T05:12:47;-1.80;99.90
34646;DHT22;20857;47.808;12.482;2023-02-26T05:15:13;-1.70;99.90
34646;DHT22;20857;47.808;12.482;2023-02-26T05:17:38;-1.60;99.90
34646;DHT22;20857;47.808;12.482;2023-02-26T05:20:04;-1.60;99.90
34646;DHT22;20857;47.808;12.482;2023-02-26T05:22:29;-1.80;99.90
34646;DHT22;20857;47.808;12.482;2023-02-26T05:24:55;-1.80;99.90
34646;DHT22;20857;47.808;12.482;2023-02-26T05:27:20;-1.90;99.90
34646;DHT22;20857;47.808;12.482;2023-02-26T05:29:46;-2.00;99.90
34646;DHT22;20857;47.808;12.482;2023-02-26T05:32:11;-1.90;99.90
34646;DHT22;20857;47.808;12.482;2023-02-26T05:34:37;-2.00;99.90
34646;DHT22;20857;47.808;12.482;2023-02-26T05:37:02;-2.10;99.90
34646;DHT22;20857;47.808;12.482;2023-02-26T05:39:28;-2.10;99.90
34646;DHT22;20857;47.808;12.482;2023-02-26T05:41:53;-2.00;99.90
34646;DHT22;20857;47.808;12.482;2023-02-26T05:44:20;-2.20;99.90
34646;DHT22;20857;47.808;12.482;2023-02-26T05:46:45;-2.20;99.90
34646;DHT22;20857;47.808;12.482;2023-02-26T05:49:11;-2.20;99.90
34646;DHT22;20857;47.808;12.482;2023-02-26T05:51:36;-2.20;99.90
34646;DHT22;20857;47.808;12.482;2023-02-26T05:54:02;-2.20;99.90
34646;DHT22;20857;47.808;12.482;2023-02-26T05:56:28;-2.10;99.90
34646;DHT22;20857;47.808;12.482;2023-02-26T05:58:53;-2.20;99.90
34646;DHT22;20857;47.808;12.482;2023-02-26T06:01:19;-2.20;99.90
34646;DHT22;20857;47.808;12.482;2023-02-26T06:03:44;-2.20;99.90
34646;DHT22;20857;47.808;12.482;2023-02-26T06:06:11;-2.10;99.90
34646;DHT22;20857;47.808;12.482;2023-02-26T06:08:36;-2.00;99.90
34646;DHT22;20857;47.808;12.482;2023-02-26T06:11:03;-1.90;99.90
34646;DHT22;20857;47.808;12.482;2023-02-26T06:13:28;-2.00;99.90
34646;DHT22;20857;47.808;12.482;2023-02-26T06:15:54;-2.00;99.90
34646;DHT22;20857;47.808;12.482;2023-02-26T06:18:19;-2.00;99.90
34646;DHT22;20857;47.808;12.482;2023-02-26T06:20:45;-1.80;99.90
34646;DHT22;20857;47.808;12.482;2023-02-26T06:23:10;-1.80;99.90
34646;DHT22;20857;47.808;12.482;2023-02-26T06:25:36;-1.80;99.90
34646;DHT22;20857;47.808;12.482;2023-02-26T06:28:01;-1.90;99.90
34646;DHT22;20857;47.808;12.482;2023-02-26T06:30:27;-2.00;99.90
34646;DHT22;20857;47.808;12.482;2023-02-26T06:32:52;-1.90;99.90
34646;DHT22;20857;47.808;12.482;2023-02-26T06:35:20;-1.90;99.90
34646;DHT22;20857;47.808;12.482;2023-02-26T06:37:45;-1.90;99.90
34646;DHT22;20857;47.808;12.482;2023-02-26T06:40:11;-0.30;99.90
34646;DHT22;20857;47.808;12.482;2023-02-26T06:42:36;-1.70;99.90
34646;DHT22;20857;47.808;12.482;2023-02-26T06:45:02;-1.60;99.90
34646;DHT22;20857;47.808;12.482;2023-02-26T06:47:28;-1.50;99.90
34646;DHT22;20857;47.808;12.482;2023-02-26T06:49:53;-1.60;99.90
34646;DHT22;20857;47.808;12.482;2023-02-26T06:52:19;-1.50;99.90
34646;DHT22;20857;47.808;12.482;2023-02-26T06:54:44;-1.70;99.90
34646;DHT22;20857;47.808;12.482;2023-02-26T06:57:10;-1.80;99.90
34646;DHT22;20857;47.808;12.482;2023-02-26T06:59:35;-2.00;99.90
34646;DHT22;20857;47.808;12.482;2023-02-26T07:02:01;-2.10;99.90
34646;DHT22;20857;47.808;12.482;2023-02-26T07:04:26;-1.90;99.90
34646;DHT22;20857;47.808;12.482;2023-02-26T07:06:52;-2.00;99.90
34646;DHT22;20857;47.808;12.482;2023-02-26T07:09:17;-1.80;99.90
34646;DHT22;20857;47.808;12.482;2023-02-26T07:11:46;-1.80;99.90
34646;DHT22;20857;47.808;12.482;2023-02-26T07:14:11;-1.60;99.90
34646;DHT22;20857;47.808;12.482;2023-02-26T07:16:36;-1.60;99.90
34646;DHT22;20857;47.808;12.482;2023-02-26T07:19:02;-1.50;99.90
34646;DHT22;20857;47.808;12.482;2023-02-26T07:21:27;-1.50;99.90
34646;DHT22;20857;47.808;12.482;2023-02-26T07:23:53;-1.40;99.90
34646;DHT22;20857;47.808;12.482;2023-02-26T07:26:18;-1.30;99.90
34646;DHT22;20857;47.808;12.482;2023-02-26T07:28:44;-1.20;99.90
34646;DHT22;20857;47.808;12.482;2023-02-26T07:31:09;-1.00;99.90
34646;DHT22;20857;47.808;12.482;2023-02-26T07:33:35;-1.00;99.90
34646;DHT22;20857;47.808;12.482;2023-02-26T07:36:02;-1.00;99.90
34646;DHT22;20857;47.808;12.482;2023-02-26T07:38:28;-0.90;99.90
34646;DHT22;20857;47.808;12.482;2023-02-26T07:40:54;-1.10;99.90
34646;DHT22;20857;47.808;12.482;2023-02-26T07:43:20;-1.10;99.90
34646;DHT22;20857;47.808;12.482;2023-02-26T07:45:45;-1.20;99.90
34646;DHT22;20857;47.808;12.482;2023-02-26T07:48:13;-1.20;99.90
34646;DHT22;20857;47.808;12.482;2023-02-26T07:50:39;-1.20;99.90
34646;DHT22;20857;47.808;12.482;2023-02-26T07:53:04;-1.30;99.90
34646;DHT22;20857;47.808;12.482;2023-02-26T07:55:30;-1.30;99.90
34646;DHT22;20857;47.808;12.482;2023-02-26T07:57:55;-1.20;99.90
34646;DHT22;20857;47.808;12.482;2023-02-26T08:00:21;-1.10;99.90
34646;DHT22;20857;47.808;12.482;2023-02-26T08:02:51;-1.10;99.90
34646;DHT22;20857;47.808;12.482;2023-02-26T08:05:16;-1.30;99.90
34646;DHT22;20857;47.808;12.482;2023-02-26T08:07:42;-1.40;99.90
34646;DHT22;20857;47.808;12.482;2023-02-26T08:10:08;-1.30;99.90
34646;DHT22;20857;47.808;12.482;2023-02-26T08:12:33;-1.30;99.90
34646;DHT22;20857;47.808;12.482;2023-02-26T08:14:59;-1.40;99.90
34646;DHT22;20857;47.808;12.482;2023-02-26T08:17:24;-1.40;99.90
34646;DHT22;20857;47.808;12.482;2023-02-26T08:19:50;-1.40;99.90
34646;DHT22;20857;47.808;12.482;2023-02-26T08:22:15;-1.50;99.90
34646;DHT22;20857;47.808;12.482;2023-02-26T08:24:41;-1.30;99.90
34646;DHT22;20857;47.808;12.482;2023-02-26T08:27:06;-1.30;99.90
34646;DHT22;20857;47.808;12.482;2023-02-26T08:29:32;-1.30;99.90
34646;DHT22;20857;47.808;12.482;2023-02-26T08:31:57;-1.20;99.90
34646;DHT22;20857;47.808;12.482;2023-02-26T08:34:23;-0.80;99.90
34646;DHT22;20857;47.808;12.482;2023-02-26T08:36:48;-0.70;99.90
34646;DHT22;20857;47.808;12.482;2023-02-26T08:39:14;-0.50;99.90
34646;DHT22;20857;47.808;12.482;2023-02-26T08:41:40;-0.40;99.90
34646;DHT22;20857;47.808;12.482;2023-02-26T08:44:05;-0.10;99.90
34646;DHT22;20857;47.808;12.482;2023-02-26T08:46:32;-0.20;99.90
34646;DHT22;20857;47.808;12.482;2023-02-26T08:48:58;-0.20;99.90
34646;DHT22;20857;47.808;12.482;2023-02-26T08:51:23;0.10;99.90
34646;DHT22;20857;47.808;12.482;2023-02-26T08:53:49;0.20;99.90
34646;DHT22;20857;47.808;12.482;2023-02-26T08:56:15;0.20;99.90
34646;DHT22;20857;47.808;12.482;2023-02-26T08:58:40;0.00;99.90
34646;DHT22;20857;47.808;12.482;2023-02-26T09:01:06;-0.20;99.90
34646;DHT22;20857;47.808;12.482;2023-02-26T09:03:31;-0.20;99.90
34646;DHT22;20857;47.808;12.482;2023-02-26T09:05:57;0.10;99.90
34646;DHT22;20857;47.808;12.482;2023-02-26T09:08:22;0.00;99.90
34646;DHT22;20857;47.808;12.482;2023-02-26T09:10:48;-0.20;99.90
34646;DHT22;20857;47.808;12.482;2023-02-26T09:13:13;0.40;99.90
34646;DHT22;20857;47.808;12.482;2023-02-26T09:15:39;0.50;99.90
34646;DHT22;20857;47.808;12.482;2023-02-26T09:18:05;0.50;99.90
34646;DHT22;20857;47.808;12.482;2023-02-26T09:20:30;0.50;99.90
34646;DHT22;20857;47.808;12.482;2023-02-26T09:22:56;0.80;99.90
34646;DHT22;20857;47.808;12.482;2023-02-26T09:25:21;0.70;99.90
34646;DHT22;20857;47.808;12.482;2023-02-26T09:27:48;0.40;99.90
34646;DHT22;20857;47.808;12.482;2023-02-26T09:30:14;0.30;99.90
34646;DHT22;20857;47.808;12.482;2023-02-26T09:32:39;0.00;99.90
34646;DHT22;20857;47.808;12.482;2023-02-26T09:35:05;0.10;99.90
34646;DHT22;20857;47.808;12.482;2023-02-26T09:37:31;0.20;99.90
34646;DHT22;20857;47.808;12.482;2023-02-26T09:39:56;0.30;99.90
34646;DHT22;20857;47.808;12.482;2023-02-26T09:44:50;0.50;99.90
34646;DHT22;20857;47.808;12.482;2023-02-26T09:47:22;0.50;99.90
34646;DHT22;20857;47.808;12.482;2023-02-26T09:50:00;0.20;99.90
34646;DHT22;20857;47.808;12.482;2023-02-26T09:54:57;0.10;99.90
34646;DHT22;20857;47.808;12.482;2023-02-26T09:57:25;0.20;99.90
34646;DHT22;20857;47.808;12.482;2023-02-26T09:59:52;0.70;99.90
34646;DHT22;20857;47.808;12.482;2023-02-26T10:02:23;0.90;99.90
34646;DHT22;20857;47.808;12.482;2023-02-26T10:04:59;0.60;99.90
34646;DHT22;20857;47.808;12.482;2023-02-26T10:12:34;0.60;99.90
34646;DHT22;20857;47.808;12.482;2023-02-26T10:18:02;0.50;99.90
34646;DHT22;20857;47.808;12.482;2023-02-26T10:20:40;0.60;99.90
34646;DHT22;20857;47.808;12.482;2023-02-26T10:25:45;0.70;99.90
34646;DHT22;20857;47.808;12.482;2023-02-26T10:30:55;0.50;99.90
34646;DHT22;20857;47.808;12.482;2023-02-26T10:35:56;0.60;99.90
34646;DHT22;20857;47.808;12.482;2023-02-26T10:38:23;0.90;99.90
34646;DHT22;20857;47.808;12.482;2023-02-26T10:40:50;1.20;99.90
34646;DHT22;20857;47.808;12.482;2023-02-26T10:43:21;0.90;99.90
34646;DHT22;20857;47.808;12.482;2023-02-26T10:51:13;0.30;99.90
34646;DHT22;20857;47.808;12.482;2023-02-26T10:53:40;0.30;99.90
34646;DHT22;20857;47.808;12.482;2023-02-26T10:56:09;0.00;99.90
34646;DHT22;20857;47.808;12.482;2023-02-26T10:58:36;0.00;99.90
34646;DHT22;20857;47.808;12.482;2023-02-26T11:01:01;-0.10;99.90
34646;DHT22;20857;47.808;12.482;2023-02-26T11:03:34;-0.20;99.90
34646;DHT22;20857;47.808;12.482;2023-02-26T11:06:01;-0.10;99.90
34646;DHT22;20857;47.808;12.482;2023-02-26T11:08:32;0.10;99.90
34646;DHT22;20857;47.808;12.482;2023-02-26T11:10:58;0.40;99.90
34646;DHT22;20857;47.808;12.482;2023-02-26T11:13:25;0.80;99.90
34646;DHT22;20857;47.808;12.482;2023-02-26T11:15:52;0.80;99.90
34646;DHT22;20857;47.808;12.482;2023-02-26T11:18:20;0.80;99.90
34646;DHT22;20857;47.808;12.482;2023-02-26T11:20:47;1.60;99.90
34646;DHT22;20857;47.808;12.482;2023-02-26T11:23:15;1.70;99.90
34646;DHT22;20857;47.808;12.482;2023-02-26T11:25:41;2.10;99.90
34646;DHT22;20857;47.808;12.482;2023-02-26T11:30:43;3.80;99.90
34646;DHT22;20857;47.808;12.482;2023-02-26T11:33:17;4.10;99.90
34646;DHT22;20857;47.808;12.482;2023-02-26T11:35:43;4.20;99.90
34646;DHT22;20857;47.808;12.482;2023-02-26T11:38:14;4.70;99.90
34646;DHT22;20857;47.808;12.482;2023-02-26T11:40:40;3.90;99.90
34646;DHT22;20857;47.808;12.482;2023-02-26T11:43:07;3.40;99.90
34646;DHT22;20857;47.808;12.482;2023-02-26T11:45:35;2.90;99.90
34646;DHT22;20857;47.808;12.482;2023-02-26T11:48:06;2.80;99.90
34646;DHT22;20857;47.808;12.482;2023-02-26T11:50:38;2.90;99.90
34646;DHT22;20857;47.808;12.482;2023-02-26T11:53:07;3.20;99.90
34646;DHT22;20857;47.808;12.482;2023-02-26T11:55:42;3.50;99.90
34646;DHT22;20857;47.808;12.482;2023-02-26T11:58:22;3.10;99.90
34646;DHT22;20857;47.808;12.482;2023-02-26T12:00:48;2.90;99.90
34646;DHT22;20857;47.808;12.482;2023-02-26T12:03:17;2.10;99.90
34646;DHT22;20857;47.808;12.482;2023-02-26T12:05:43;1.40;99.90
34646;DHT22;20857;47.808;12.482;2023-02-26T12:08:27;1.10;99.90
34646;DHT22;20857;47.808;12.482;2023-02-26T12:11:00;0.90;99.90
34646;DHT22;20857;47.808;12.482;2023-02-26T12:18:35;0.60;99.90
34646;DHT22;20857;47.808;12.482;2023-02-26T12:21:05;0.80;99.90
34646;DHT22;20857;47.808;12.482;2023-02-26T12:26:28;0.80;99.90
34646;DHT22;20857;47.808;12.482;2023-02-26T12:31:28;1.50;99.90
34646;DHT22;20857;47.808;12.482;2023-02-26T12:36:27;3.30;99.90
34646;DHT22;20857;47.808;12.482;2023-02-26T12:43:51;5.80;99.90
34646;DHT22;20857;47.808;12.482;2023-02-26T13:01:42;3.30;99.90
34646;DHT22;20857;47.808;12.482;2023-02-26T13:11:57;2.60;99.90
34646;DHT22;20857;47.808;12.482;2023-02-26T13:16:55;2.40;99.90
34646;DHT22;20857;47.808;12.482;2023-02-26T13:20:10;2.60;99.90
34646;DHT22;20857;47.808;12.482;2023-02-26T13:27:21;3.60;99.90
34646;DHT22;20857;47.808;12.482;2023-02-26T13:30:50;4.70;99.90
34646;DHT22;20857;47.808;12.482;2023-02-26T13:32:43;2.60;99.90
34646;DHT22;20857;47.808;12.482;2023-02-26T13:37:45;0.70;99.90
34646;DHT22;20857;47.808;12.482;2023-02-26T13:40:18;0.60;99.90
34646;DHT22;20857;47.808;12.482;2023-02-26T13:47:45;0.60;99.90
34646;DHT22;20857;47.808;12.482;2023-02-26T13:50:22;1.20;99.90
34646;DHT22;20857;47.808;12.482;2023-02-26T13:52:51;1.50;99.90
34646;DHT22;20857;47.808;12.482;2023-02-26T13:55:34;1.50;99.90
34646;DHT22;20857;47.808;12.482;2023-02-26T13:58:07;1.60;99.90
34646;DHT22;20857;47.808;12.482;2023-02-26T14:03:10;1.40;99.90
34646;DHT22;20857;47.808;12.482;2023-02-26T14:08:18;0.50;99.90
34646;DHT22;20857;47.808;12.482;2023-02-26T14:13:18;0.00;99.90
34646;DHT22;20857;47.808;12.482;2023-02-26T14:16:00;0.10;99.90
34646;DHT22;20857;47.808;12.482;2023-02-26T14:18:40;0.20;99.90
34646;DHT22;20857;47.808;12.482;2023-02-26T14:21:26;0.30;99.90
34646;DHT22;20857;47.808;12.482;2023-02-26T14:23:59;0.80;99.90
34646;DHT22;20857;47.808;12.482;2023-02-26T14:26:26;0.90;99.90
34646;DHT22;20857;47.808;12.482;2023-02-26T14:34:12;1.30;99.90
34646;DHT22;20857;47.808;12.482;2023-02-26T14:36:45;1.50;99.90
34646;DHT22;20857;47.808;12.482;2023-02-26T14:39:33;1.90;99.90
34646;DHT22;20857;47.808;12.482;2023-02-26T14:42:01;2.40;99.90
34646;DHT22;20857;47.808;12.482;2023-02-26T14:44:30;2.30;99.90
34646;DHT22;20857;47.808;12.482;2023-02-26T14:46:58;2.20;99.90
34646;DHT22;20857;47.808;12.482;2023-02-26T14:54:37;1.40;99.90
34646;DHT22;20857;47.808;12.482;2023-02-26T15:02:22;1.00;99.90
34646;DHT22;20857;47.808;12.482;2023-02-26T15:18:24;0.40;99.90
34646;DHT22;20857;47.808;12.482;2023-02-26T15:20:46;0.40;99.90
34646;DHT22;20857;47.808;12.482;2023-02-26T15:25:44;0.50;99.90
34646;DHT22;20857;47.808;12.482;2023-02-26T15:28:16;0.80;99.90
34646;DHT22;20857;47.808;12.482;2023-02-26T15:30:44;1.00;99.90
34646;DHT22;20857;47.808;12.482;2023-02-26T15:33:12;1.10;99.90
34646;DHT22;20857;47.808;12.482;2023-02-26T15:35:37;1.20;99.90
34646;DHT22;20857;47.808;12.482;2023-02-26T15:38:03;1.20;99.90
34646;DHT22;20857;47.808;12.482;2023-02-26T15:40:32;1.20;99.90
34646;DHT22;20857;47.808;12.482;2023-02-26T15:42:58;0.90;99.90
34646;DHT22;20857;47.808;12.482;2023-02-26T15:47:57;0.60;99.90
34646;DHT22;20857;47.808;12.482;2023-02-26T15:50:24;0.40;99.90
34646;DHT22;20857;47.808;12.482;2023-02-26T15:52:52;0.40;99.90
34646;DHT22;20857;47.808;12.482;2023-02-26T15:55:20;0.40;99.90
34646;DHT22;20857;47.808;12.482;2023-02-26T15:57:46;0.40;99.90
34646;DHT22;20857;47.808;12.482;2023-02-26T16:00:15;0.30;99.90
34646;DHT22;20857;47.808;12.482;2023-02-26T16:02:41;0.20;99.90
34646;DHT22;20857;47.808;12.482;2023-02-26T16:05:07;0.10;99.90
34646;DHT22;20857;47.808;12.482;2023-02-26T16:07:35;-0.10;99.90
34646;DHT22;20857;47.808;12.482;2023-02-26T16:12:59;-0.30;99.90
34646;DHT22;20857;47.808;12.482;2023-02-26T16:15:30;-0.40;99.90
34646;DHT22;20857;47.808;12.482;2023-02-26T16:17:56;-0.50;99.90
34646;DHT22;20857;47.808;12.482;2023-02-26T16:20:24;-0.50;99.90
34646;DHT22;20857;47.808;12.482;2023-02-26T16:22:54;-0.60;99.90
34646;DHT22;20857;47.808;12.482;2023-02-26T16:25:39;-0.70;99.90
34646;DHT22;20857;47.808;12.482;2023-02-26T16:28:14;-0.80;99.90
34646;DHT22;20857;47.808;12.482;2023-02-26T16:30:41;-0.90;99.90
34646;DHT22;20857;47.808;12.482;2023-02-26T16:33:09;-0.90;99.90
34646;DHT22;20857;47.808;12.482;2023-02-26T16:35:37;-0.90;99.90
34646;DHT22;20857;47.808;12.482;2023-02-26T16:38:16;-0.70;99.90
34646;DHT22;20857;47.808;12.482;2023-02-26T16:40:43;-0.70;99.90
34646;DHT22;20857;47.808;12.482;2023-02-26T16:45:53;-0.90;99.90
34646;DHT22;20857;47.808;12.482;2023-02-26T16:50:46;-1.10;99.90
34646;DHT22;20857;47.808;12.482;2023-02-26T16:53:18;-1.00;99.90
34646;DHT22;20857;47.808;12.482;2023-02-26T16:55:46;-1.00;99.90
34646;DHT22;20857;47.808;12.482;2023-02-26T16:58:13;-1.00;99.90
34646;DHT22;20857;47.808;12.482;2023-02-26T17:00:39;-1.00;99.90
34646;DHT22;20857;47.808;12.482;2023-02-26T17:03:14;-1.00;99.90
34646;DHT22;20857;47.808;12.482;2023-02-26T17:05:43;-1.00;99.90
34646;DHT22;20857;47.808;12.482;2023-02-26T17:08:18;-1.00;99.90
34646;DHT22;20857;47.808;12.482;2023-02-26T17:10:45;-1.00;99.90
34646;DHT22;20857;47.808;12.482;2023-02-26T17:13:12;-1.00;99.90
34646;DHT22;20857;47.808;12.482;2023-02-26T17:15:39;-1.10;99.90
34646;DHT22;20857;47.808;12.482;2023-02-26T17:18:05;-1.10;99.90
34646;DHT22;20857;47.808;12.482;2023-02-26T17:20:31;-1.00;99.90
34646;DHT22;20857;47.808;12.482;2023-02-26T17:22:57;-1.00;99.90
34646;DHT22;20857;47.808;12.482;2023-02-26T17:25:24;-1.00;99.90
34646;DHT22;20857;47.808;12.482;2023-02-26T17:27:50;-1.10;99.90
34646;DHT22;20857;47.808;12.482;2023-02-26T17:30:19;-1.10;99.90
34646;DHT22;20857;47.808;12.482;2023-02-26T17:32:45;-1.20;99.90
34646;DHT22;20857;47.808;12.482;2023-02-26T17:35:11;-1.40;99.90
34646;DHT22;20857;47.808;12.482;2023-02-26T17:37:37;-1.40;99.90
34646;DHT22;20857;47.808;12.482;2023-02-26T17:40:04;-1.50;99.90
34646;DHT22;20857;47.808;12.482;2023-02-26T17:42:37;-1.60;99.90
34646;DHT22;20857;47.808;12.482;2023-02-26T17:45:03;-1.40;99.90
34646;DHT22;20857;47.808;12.482;2023-02-26T17:47:28;-1.50;99.90
34646;DHT22;20857;47.808;12.482;2023-02-26T17:49:54;-1.50;99.90
34646;DHT22;20857;47.808;12.482;2023-02-26T17:52:19;-1.50;99.90
34646;DHT22;20857;47.808;12.482;2023-02-26T17:54:45;-1.60;99.90
34646;DHT22;20857;47.808;12.482;2023-02-26T17:57:15;-1.50;99.90
34646;DHT22;20857;47.808;12.482;2023-02-26T17:59:41;-1.50;99.90
34646;DHT22;20857;47.808;12.482;2023-02-26T18:02:16;-1.50;99.90
34646;DHT22;20857;47.808;12.482;2023-02-26T18:04:42;-1.50;99.90
34646;DHT22;20857;47.808;12.482;2023-02-26T18:07:08;-1.50;99.90
34646;DHT22;20857;47.808;12.482;2023-02-26T18:09:34;-1.60;99.90
34646;DHT22;20857;47.808;12.482;2023-02-26T18:11:59;-1.60;99.90
34646;DHT22;20857;47.808;12.482;2023-02-26T18:14:24;-1.60;99.90
34646;DHT22;20857;47.808;12.482;2023-02-26T18:16:50;-1.70;99.90
34646;DHT22;20857;47.808;12.482;2023-02-26T18:19:15;-1.70;99.90
34646;DHT22;20857;47.808;12.482;2023-02-26T18:21:41;-1.70;99.90
34646;DHT22;20857;47.808;12.482;2023-02-26T18:24:07;-1.80;99.90
34646;DHT22;20857;47.808;12.482;2023-02-26T18:26:32;-1.80;99.90